Fecha, hora, temperatura, viento dirección y velocidad, humedad y presión.

  • 11-04-2019 21:00:00 | 2.60°C | Sudoeste |2.00 km/h | 96.00% | 0.00 hPa
  • 11-04-2019 20:00:00 | 3.10°C | Sudoeste |2.00 km/h | 93.00% | 0.00 hPa
  • 11-04-2019 19:00:00 | 3.90°C | Sudoeste |2.00 km/h | 92.00% | 0.00 hPa
  • 11-04-2019 18:00:00 | 4.30°C | Sudoeste |6.00 km/h | 84.00% | 0.00 hPa
  • 11-04-2019 17:00:00 | 5.10°C | Sudoeste |7.00 km/h | 76.00% | 0.00 hPa
  • 11-04-2019 16:00:00 | 5.40°C | Sudoeste |6.00 km/h | 74.00% | 0.00 hPa
  • 11-04-2019 15:00:00 | 6.70°C | Sudoeste |6.00 km/h | 58.00% | 0.00 hPa
  • 11-04-2019 14:00:00 | 8.70°C | Sudoeste |5.00 km/h | 50.00% | 0.00 hPa
  • 11-04-2019 13:00:00 | 8.40°C | Sudoeste |6.00 km/h | 50.00% | 0.00 hPa
  • 11-04-2019 12:00:00 | 6.60°C | Sudoeste |7.00 km/h | 53.00% | 0.00 hPa
  • 11-04-2019 11:00:00 | 5.00°C | Sudoeste |5.00 km/h | 65.00% | 0.00 hPa
  • 11-04-2019 10:00:00 | 4.30°C | Sudoeste |6.00 km/h | 83.00% | 0.00 hPa
  • 11-04-2019 09:00:00 | 2.10°C | Calma |0.00 km/h | 96.00% | 0.00 hPa
  • 11-04-2019 08:00:00 | 1.30°C | Este |2.00 km/h | 96.00% | 0.00 hPa
  • 11-04-2019 07:00:00 | 1.70°C | Sur |3.00 km/h | 96.00% | 0.00 hPa
  • 11-04-2019 06:00:00 | 2.00°C | Sur |4.00 km/h | 96.00% | 0.00 hPa
  • 11-04-2019 05:00:00 | 2.10°C | Sudeste |3.00 km/h | 96.00% | 0.00 hPa
  • 11-04-2019 04:00:00 | 1.80°C | Nordeste |3.00 km/h | 96.00% | 0.00 hPa
  • 11-04-2019 03:00:00 | 2.80°C | Oeste |5.00 km/h | 94.00% | 0.00 hPa
  • 11-04-2019 02:00:00 | 2.20°C | Nordeste |3.00 km/h | 96.00% | 0.00 hPa
  • 11-04-2019 01:00:00 | 2.70°C | Calma |0.00 km/h | 95.00% | 0.00 hPa
  • 11-04-2019 00:00:00 | 3.00°C | Sudoeste |2.00 km/h | 94.00% | 0.00 hPa
  • 10-04-2019 23:00:00 | 3.60°C | Sudoeste |2.00 km/h | 91.00% | 0.00 hPa
  • 10-04-2019 22:00:00 | 4.00°C | Sudoeste |2.00 km/h | 91.00% | 0.00 hPa
    • diseño web asturias Información sobre el estado de las mareas, altura de la marejada, temperatura del agua y otros datos de Gijón en Asturias.

      Surf Gijón